Time,TemperatureF,DewpointF,PressureIn,WindDirection,WindDirectionDegrees,WindSpeedMPH,WindSpeedGustMPH,Humidity,HourlyPrecipIn,Conditions,Clouds,dailyrainin,SoftwareType,DateUTC
2013-07-08 00:00:00,68.8,68.1,30.12,SSE,152,0.0,0.0,98,0.00,,,0.20,HR-IXPWINDi_r2_v1.2.,2013-07-08 04:00:00,
2013-07-08 00:01:00,68.8,68.1,30.12,SSE,152,0.0,0.0,98,0.00,,,0.20,HR-IXPWINDi_r2_v1.2.,2013-07-08 04:01:00,
2013-07-08 00:06:00,68.8,68.1,30.12,SSE,152,0.0,0.0,98,0.00,,,0.00,HR-IXPWINDi_r2_v1.2.,2013-07-08 04:06:00,
2013-07-08 00:11:00,68.7,68.0,30.12,SSE,152,0.0,0.0,98,0.00,,,0.00,HR-IXPWINDi_r2_v1.2.,2013-07-08 04:11:00,
2013-07-08 00:16:00,68.7,68.3,30.12,SSE,152,0.0,0.0,99,0.00,,,0.00,HR-IXPWINDi_r2_v1.2.,2013-07-08 04:16:00,
2013-07-08 00:22:00,68.7,68.3,30.12,SSE,152,0.0,0.0,99,0.00,,,0.00,HR-IXPWINDi_r2_v1.2.,2013-07-08 04:22:00,
2013-07-08 00:27:00,68.7,68.3,30.12,SSE,152,0.0,0.0,99,0.00,,,0.00,HR-IXPWINDi_r2_v1.2.,2013-07-08 04:27:00,
2013-07-08 00:32:00,68.6,68.2,30.12,SSE,152,0.0,0.0,99,0.00,,,0.00,HR-IXPWINDi_r2_v1.2.,2013-07-08 04:32:00,
2013-07-08 00:37:00,68.6,68.2,30.12,SSE,152,0.0,0.0,99,0.00,,,0.00,HR-IXPWINDi_r2_v1.2.,2013-07-08 04:37:00,
2013-07-08 00:42:00,68.5,67.8,30.12,SSE,152,0.0,0.0,98,0.00,,,0.00,HR-IXPWINDi_r2_v1.2.,2013-07-08 04:42:00,
2013-07-08 00:47:00,68.4,67.7,30.12,SSE,152,0.0,0.0,98,0.00,,,0.00,HR-IXPWINDi_r2_v1.2.,2013-07-08 04:47:00,
2013-07-08 00:53:00,68.4,67.7,30.13,SSE,152,0.0,0.0,98,0.00,,,0.00,HR-IXPWINDi_r2_v1.2.,2013-07-08 04:53:00,
2013-07-08 00:58:00,68.5,68.1,30.13,SSE,152,0.0,0.0,99,0.00,,,0.00,HR-IXPWINDi_r2_v1.2.,2013-07-08 04:58:00,
2013-07-08 01:03:00,68.6,68.2,30.13,SSE,152,0.0,0.0,99,0.00,,,0.00,HR-IXPWINDi_r2_v1.2.,2013-07-08 05:03:00,
2013-07-08 01:08:00,68.5,68.1,30.13,SSE,152,0.0,1.0,99,0.00,,,0.00,HR-IXPWINDi_r2_v1.2.,2013-07-08 05:08:00,
2013-07-08 01:13:00,68.5,68.1,30.13,SSE,152,0.0,1.0,99,0.00,,,0.00,HR-IXPWINDi_r2_v1.2.,2013-07-08 05:13:00,
2013-07-08 01:18:00,68.4,68.0,30.13,SSE,152,0.0,0.0,99,0.00,,,0.00,HR-IXPWINDi_r2_v1.2.,2013-07-08 05:18:00,
2013-07-08 01:23:00,68.4,68.0,30.13,SSE,152,0.0,0.0,99,0.00,,,0.00,HR-IXPWINDi_r2_v1.2.,2013-07-08 05:23:00,
2013-07-08 01:28:00,68.5,68.1,30.13,SSE,152,0.0,1.0,99,0.00,,,0.00,HR-IXPWINDi_r2_v1.2.,2013-07-08 05:28:00,
2013-07-08 01:34:00,68.6,68.2,30.13,SSE,152,0.0,1.0,99,0.00,,,0.00,HR-IXPWINDi_r2_v1.2.,2013-07-08 05:34:00,
2013-07-08 01:39:00,68.6,68.2,30.13,SSE,152,0.0,1.0,99,0.00,,,0.00,HR-IXPWINDi_r2_v1.2.,2013-07-08 05:39:00,
2013-07-08 01:44:00,68.6,68.2,30.13,SSE,152,0.0,1.0,99,0.00,,,0.00,HR-IXPWINDi_r2_v1.2.,2013-07-08 05:44:00,
2013-07-08 01:50:00,68.6,68.2,30.13,SSE,152,0.0,1.0,99,0.00,,,0.00,HR-IXPWINDi_r2_v1.2.,2013-07-08 05:50:00,
2013-07-08 01:55:00,68.7,68.3,30.13,SSE,152,0.0,1.0,99,0.00,,,0.00,HR-IXPWINDi_r2_v1.2.,2013-07-08 05:55:00,
2013-07-08 02:00:00,68.8,68.4,30.13,SSE,152,0.0,1.0,99,0.00,,,0.00,HR-IXPWINDi_r2_v1.2.,2013-07-08 06:00:00,
2013-07-08 02:05:00,68.7,68.3,30.12,SSE,152,0.0,0.0,99,0.00,,,0.00,HR-IXPWINDi_r2_v1.2.,2013-07-08 06:05:00,
2013-07-08 02:10:00,68.7,68.3,30.12,SSE,152,0.0,0.0,99,0.00,,,0.00,HR-IXPWINDi_r2_v1.2.,2013-07-08 06:10:00,
2013-07-08 02:16:00,68.6,68.2,30.12,SSE,152,0.0,0.0,99,0.00,,,0.00,HR-IXPWINDi_r2_v1.2.,2013-07-08 06:16:00,
2013-07-08 02:21:00,68.5,68.1,30.13,SSE,152,0.0,0.0,99,0.00,,,0.00,HR-IXPWINDi_r2_v1.2.,2013-07-08 06:21:00,
2013-07-08 02:26:00,68.5,68.1,30.13,SSE,152,0.0,0.0,99,0.00,,,0.00,HR-IXPWINDi_r2_v1.2.,2013-07-08 06:26:00,
2013-07-08 02:31:00,68.4,68.0,30.12,SSE,152,0.0,0.0,99,0.00,,,0.00,HR-IXPWINDi_r2_v1.2.,2013-07-08 06:31:00,
2013-07-08 02:36:00,68.4,68.0,30.12,SSE,152,0.0,0.0,99,0.00,,,0.00,HR-IXPWINDi_r2_v1.2.,2013-07-08 06:36:00,
2013-07-08 02:42:00,68.4,68.0,30.12,SSE,152,0.0,0.0,99,0.00,,,0.00,HR-IXPWINDi_r2_v1.2.,2013-07-08 06:42:00,
2013-07-08 02:47:00,68.4,68.0,30.12,SSE,152,0.0,0.0,99,0.00,,,0.00,HR-IXPWINDi_r2_v1.2.,2013-07-08 06:47:00,
2013-07-08 02:52:00,68.4,68.0,30.12,SSE,152,0.0,0.0,99,0.00,,,0.00,HR-IXPWINDi_r2_v1.2.,2013-07-08 06:52:00,
2013-07-08 02:57:00,68.4,68.0,30.12,SSE,152,0.0,0.0,99,0.00,,,0.00,HR-IXPWINDi_r2_v1.2.,2013-07-08 06:57:00,
2013-07-08 03:03:00,68.3,67.9,30.12,SSE,152,0.0,0.0,99,0.00,,,0.00,HR-IXPWINDi_r2_v1.2.,2013-07-08 07:03:00,
2013-07-08 03:08:00,68.3,67.9,30.12,SSE,152,0.0,2.0,99,0.00,,,0.00,HR-IXPWINDi_r2_v1.2.,2013-07-08 07:08:00,
2013-07-08 03:13:00,68.3,67.9,30.12,SSE,148,0.0,2.0,99,0.00,,,0.00,HR-IXPWINDi_r2_v1.2.,2013-07-08 07:13:00,
2013-07-08 03:18:00,68.2,67.8,30.12,SSE,148,1.0,2.0,99,0.00,,,0.00,HR-IXPWINDi_r2_v1.2.,2013-07-08 07:18:00,
2013-07-08 03:23:00,68.1,67.7,30.12,SE,146,0.0,2.0,99,0.00,,,0.00,HR-IXPWINDi_r2_v1.2.,2013-07-08 07:23:00,
2013-07-08 03:29:00,68.1,67.7,30.11,SE,146,1.0,2.0,99,0.00,,,0.00,HR-IXPWINDi_r2_v1.2.,2013-07-08 07:29:00,
2013-07-08 03:34:00,68.1,67.7,30.11,NW,309,1.0,3.0,99,0.00,,,0.00,HR-IXPWINDi_r2_v1.2.,2013-07-08 07:34:00,
2013-07-08 03:39:00,68.0,67.6,30.11,NNE,20,0.0,3.0,99,0.00,,,0.00,HR-IXPWINDi_r2_v1.2.,2013-07-08 07:39:00,
2013-07-08 03:44:00,68.0,67.6,30.11,NNE,20,1.0,3.0,99,0.00,,,0.00,HR-IXPWINDi_r2_v1.2.,2013-07-08 07:44:00,
2013-07-08 03:49:00,68.0,67.6,30.11,NNE,20,0.0,2.0,99,0.00,,,0.00,HR-IXPWINDi_r2_v1.2.,2013-07-08 07:49:00,
2013-07-08 03:54:00,68.0,67.6,30.11,East,79,0.0,2.0,99,0.00,,,0.00,HR-IXPWINDi_r2_v1.2.,2013-07-08 07:54:00,
2013-07-08 03:59:00,68.0,67.6,30.11,SSE,157,1.0,3.0,99,0.00,,,0.00,HR-IXPWINDi_r2_v1.2.,2013-07-08 07:59:00,
2013-07-08 04:05:00,68.0,67.6,30.11,South,180,3.0,6.0,99,0.00,,,0.00,HR-IXPWINDi_r2_v1.2.,2013-07-08 08:05:00,
2013-07-08 04:10:00,68.2,67.8,30.11,ESE,105,0.0,6.0,99,0.00,,,0.00,HR-IXPWINDi_r2_v1.2.,2013-07-08 08:10:00,
2013-07-08 04:15:00,68.3,67.6,30.11,SSE,149,0.0,2.0,98,0.00,,,0.00,HR-IXPWINDi_r2_v1.2.,2013-07-08 08:15:00,
2013-07-08 04:20:00,68.3,67.6,30.11,SSE,149,0.0,2.0,98,0.00,,,0.00,HR-IXPWINDi_r2_v1.2.,2013-07-08 08:20:00,
2013-07-08 04:26:00,68.2,67.5,30.11,SSE,149,0.0,1.0,98,0.00,,,0.00,HR-IXPWINDi_r2_v1.2.,2013-07-08 08:26:00,
2013-07-08 04:31:00,68.1,67.4,30.11,ESE,112,1.0,2.0,98,0.00,,,0.00,HR-IXPWINDi_r2_v1.2.,2013-07-08 08:31:00,
2013-07-08 04:36:00,68.0,67.3,30.11,NNE,26,1.0,3.0,98,0.00,,,0.00,HR-IXPWINDi_r2_v1.2.,2013-07-08 08:36:00,
2013-07-08 04:41:00,67.9,67.2,30.11,NNE,26,1.0,3.0,98,0.00,,,0.00,HR-IXPWINDi_r2_v1.2.,2013-07-08 08:41:00,
2013-07-08 04:47:00,67.7,67.0,30.11,NNE,31,0.0,3.0,98,0.00,,,0.00,HR-IXPWINDi_r2_v1.2.,2013-07-08 08:47:00,
2013-07-08 04:52:00,67.7,67.0,30.11,NNE,31,0.0,3.0,98,0.00,,,0.00,HR-IXPWINDi_r2_v1.2.,2013-07-08 08:52:00,
2013-07-08 04:57:00,67.5,66.8,30.12,SSE,155,0.0,3.0,98,0.00,,,0.00,HR-IXPWINDi_r2_v1.2.,2013-07-08 08:57:00,
2013-07-08 05:02:00,67.5,66.8,30.12,SSE,155,0.0,3.0,98,0.00,,,0.00,HR-IXPWINDi_r2_v1.2.,2013-07-08 09:02:00,
2013-07-08 05:08:00,67.5,67.1,30.12,SSE,155,0.0,2.0,99,0.00,,,0.00,HR-IXPWINDi_r2_v1.2.,2013-07-08 09:08:00,
2013-07-08 05:13:00,67.4,67.0,30.12,SSE,155,1.0,1.0,99,0.00,,,0.00,HR-IXPWINDi_r2_v1.2.,2013-07-08 09:13:00,
2013-07-08 05:18:00,67.3,66.9,30.12,SSE,155,0.0,1.0,99,0.00,,,0.00,HR-IXPWINDi_r2_v1.2.,2013-07-08 09:18:00,
2013-07-08 05:23:00,67.1,66.4,30.12,SSE,155,0.0,1.0,98,0.00,,,0.00,HR-IXPWINDi_r2_v1.2.,2013-07-08 09:23:00,
2013-07-08 05:29:00,67.0,66.6,30.12,NNE,15,2.0,4.0,99,0.00,,,0.00,HR-IXPWINDi_r2_v1.2.,2013-07-08 09:29:00,
2013-07-08 05:34:00,67.0,66.6,30.12,NNE,15,0.0,4.0,99,0.00,,,0.00,HR-IXPWINDi_r2_v1.2.,2013-07-08 09:34:00,
2013-07-08 05:39:00,66.9,66.5,30.12,NNE,15,0.0,2.0,99,0.00,,,0.00,HR-IXPWINDi_r2_v1.2.,2013-07-08 09:39:00,
2013-07-08 05:44:00,66.9,66.5,30.12,NNE,15,0.0,2.0,99,0.00,,,0.00,HR-IXPWINDi_r2_v1.2.,2013-07-08 09:44:00,
2013-07-08 05:49:00,66.8,66.4,30.13,NNE,15,1.0,2.0,99,0.00,,,0.00,HR-IXPWINDi_r2_v1.2.,2013-07-08 09:49:00,
2013-07-08 05:54:00,66.7,66.3,30.13,NNE,15,1.0,2.0,99,0.00,,,0.00,HR-IXPWINDi_r2_v1.2.,2013-07-08 09:54:00,
2013-07-08 05:59:00,66.9,66.5,30.13,East,94,0.0,3.0,99,0.00,,,0.00,HR-IXPWINDi_r2_v1.2.,2013-07-08 09:59:00,
2013-07-08 06:04:00,67.0,66.6,30.13,East,94,2.0,3.0,99,0.00,,,0.00,HR-IXPWINDi_r2_v1.2.,2013-07-08 10:04:00,
2013-07-08 06:09:00,67.0,66.6,30.13,NNE,31,2.0,2.0,99,0.00,,,0.00,HR-IXPWINDi_r2_v1.2.,2013-07-08 10:09:00,
2013-07-08 06:14:00,66.9,66.5,30.13,NNE,31,0.0,3.0,99,0.00,,,0.00,HR-IXPWINDi_r2_v1.2.,2013-07-08 10:14:00,
2013-07-08 06:20:00,66.8,66.4,30.13,NE,50,0.0,3.0,99,0.00,,,0.00,HR-IXPWINDi_r2_v1.2.,2013-07-08 10:20:00,
2013-07-08 06:25:00,66.9,66.5,30.13,ENE,67,0.0,6.0,99,0.00,,,0.00,HR-IXPWINDi_r2_v1.2.,2013-07-08 10:25:00,
2013-07-08 06:30:00,67.0,66.6,30.13,NE,46,1.0,6.0,99,0.00,,,0.00,HR-IXPWINDi_r2_v1.2.,2013-07-08 10:30:00,
2013-07-08 06:36:00,67.0,66.6,30.13,NE,46,2.0,2.0,99,0.00,,,0.00,HR-IXPWINDi_r2_v1.2.,2013-07-08 10:36:00,
2013-07-08 06:41:00,67.0,66.6,30.13,NE,52,1.0,5.0,99,0.00,,,0.00,HR-IXPWINDi_r2_v1.2.,2013-07-08 10:41:00,
2013-07-08 06:46:00,67.1,66.7,30.13,East,82,1.0,5.0,99,0.00,,,0.00,HR-IXPWINDi_r2_v1.2.,2013-07-08 10:46:00,
2013-07-08 06:51:00,67.2,66.5,30.14,South,184,0.0,4.0,98,0.00,,,0.00,HR-IXPWINDi_r2_v1.2.,2013-07-08 10:51:00,
2013-07-08 06:57:00,67.3,66.6,30.14,ESE,117,1.0,3.0,98,0.00,,,0.00,HR-IXPWINDi_r2_v1.2.,2013-07-08 10:57:00,
2013-07-08 07:02:00,67.5,66.8,30.14,SSE,149,0.0,3.0,98,0.00,,,0.00,HR-IXPWINDi_r2_v1.2.,2013-07-08 11:02:00,
2013-07-08 07:07:00,67.6,66.7,30.14,ENE,71,3.0,3.0,97,0.00,,,0.00,HR-IXPWINDi_r2_v1.2.,2013-07-08 11:07:00,
2013-07-08 07:12:00,67.8,66.9,30.14,NNE,23,3.0,3.0,97,0.00,,,0.00,HR-IXPWINDi_r2_v1.2.,2013-07-08 11:12:00,
2013-07-08 07:17:00,68.0,67.1,30.14,ESE,117,4.0,6.0,97,0.00,,,0.00,HR-IXPWINDi_r2_v1.2.,2013-07-08 11:17:00,
2013-07-08 07:22:00,68.2,66.9,30.14,NNE,13,1.0,6.0,96,0.00,,,0.00,HR-IXPWINDi_r2_v1.2.,2013-07-08 11:22:00,
2013-07-08 07:28:00,68.3,67.0,30.14,ENE,68,2.0,6.0,96,0.00,,,0.00,HR-IXPWINDi_r2_v1.2.,2013-07-08 11:28:00,
2013-07-08 07:33:00,68.4,67.1,30.14,ENE,68,0.0,4.0,96,0.00,,,0.00,HR-IXPWINDi_r2_v1.2.,2013-07-08 11:33:00,
2013-07-08 07:38:00,68.5,67.2,30.14,ENE,76,2.0,4.0,96,0.00,,,0.00,HR-IXPWINDi_r2_v1.2.,2013-07-08 11:38:00,
2013-07-08 07:43:00,68.6,67.0,30.15,North,355,1.0,4.0,95,0.00,,,0.00,HR-IXPWINDi_r2_v1.2.,2013-07-08 11:43:00,
2013-07-08 07:48:00,68.7,67.1,30.15,North,360,1.0,4.0,95,0.00,,,0.00,HR-IXPWINDi_r2_v1.2.,2013-07-08 11:48:00,
2013-07-08 07:53:00,68.8,67.2,30.15,SE,128,6.0,6.0,95,0.00,,,0.00,HR-IXPWINDi_r2_v1.2.,2013-07-08 11:53:00,
2013-07-08 07:58:00,69.0,67.1,30.15,NE,50,1.0,6.0,94,0.00,,,0.00,HR-IXPWINDi_r2_v1.2.,2013-07-08 11:58:00,
2013-07-08 08:03:00,69.2,67.3,30.15,NNE,33,4.0,7.0,94,0.00,,,0.00,HR-IXPWINDi_r2_v1.2.,2013-07-08 12:03:00,
2013-07-08 08:09:00,69.4,67.5,30.15,North,355,3.0,7.0,94,0.00,,,0.00,HR-IXPWINDi_r2_v1.2.,2013-07-08 12:09:00,
2013-07-08 08:14:00,69.4,67.5,30.15,ENE,59,2.0,4.0,94,0.00,,,0.00,HR-IXPWINDi_r2_v1.2.,2013-07-08 12:14:00,
2013-07-08 08:19:00,69.5,67.6,30.15,NNE,17,0.0,4.0,94,0.00,,,0.00,HR-IXPWINDi_r2_v1.2.,2013-07-08 12:19:00,
2013-07-08 08:24:00,69.7,67.5,30.15,North,5,2.0,4.0,93,0.00,,,0.00,HR-IXPWINDi_r2_v1.2.,2013-07-08 12:24:00,
2013-07-08 08:30:00,69.9,67.7,30.16,NNE,17,1.0,3.0,93,0.00,,,0.00,HR-IXPWINDi_r2_v1.2.,2013-07-08 12:30:00,
2013-07-08 08:35:00,70.1,67.6,30.15,East,80,1.0,4.0,92,0.00,,,0.00,HR-IXPWINDi_r2_v1.2.,2013-07-08 12:35:00,
2013-07-08 08:40:00,70.4,67.9,30.16,NE,40,0.0,6.0,92,0.00,,,0.00,HR-IXPWINDi_r2_v1.2.,2013-07-08 12:40:00,
2013-07-08 08:45:00,70.6,67.8,30.15,ESE,117,2.0,6.0,91,0.00,,,0.00,HR-IXPWINDi_r2_v1.2.,2013-07-08 12:45:00,
2013-07-08 08:50:00,70.7,67.9,30.15,NNE,28,0.0,5.0,91,0.00,,,0.00,HR-IXPWINDi_r2_v1.2.,2013-07-08 12:50:00,
2013-07-08 08:55:00,70.9,68.4,30.15,East,87,0.0,7.0,92,0.00,,,0.00,HR-IXPWINDi_r2_v1.2.,2013-07-08 12:55:00,
2013-07-08 09:00:00,70.9,68.1,30.16,ENE,68,0.0,7.0,91,0.00,,,0.00,HR-IXPWINDi_r2_v1.2.,2013-07-08 13:00:00,
2013-07-08 09:06:00,71.0,68.2,30.15,ENE,65,1.0,3.0,91,0.00,,,0.00,HR-IXPWINDi_r2_v1.2.,2013-07-08 13:06:00,
2013-07-08 09:11:00,71.1,68.0,30.16,ENE,63,1.0,3.0,90,0.00,,,0.00,HR-IXPWINDi_r2_v1.2.,2013-07-08 13:11:00,
2013-07-08 09:16:00,71.2,68.4,30.16,ESE,113,2.0,4.0,91,0.00,,,0.00,HR-IXPWINDi_r2_v1.2.,2013-07-08 13:16:00,
2013-07-08 09:21:00,71.4,68.6,30.16,ENE,76,1.0,4.0,91,0.00,,,0.00,HR-IXPWINDi_r2_v1.2.,2013-07-08 13:21:00,
2013-07-08 09:26:00,71.7,68.5,30.16,NW,322,1.0,7.0,90,0.00,,,0.00,HR-IXPWINDi_r2_v1.2.,2013-07-08 13:26:00,
2013-07-08 09:31:00,71.9,68.4,30.16,East,89,3.0,7.0,89,0.00,,,0.00,HR-IXPWINDi_r2_v1.2.,2013-07-08 13:31:00,
2013-07-08 09:36:00,72.2,68.7,30.16,East,84,0.0,4.0,89,0.00,,,0.00,HR-IXPWINDi_r2_v1.2.,2013-07-08 13:36:00,
2013-07-08 09:42:00,72.5,69.0,30.17,East,88,0.0,4.0,89,0.00,,,0.00,HR-IXPWINDi_r2_v1.2.,2013-07-08 13:42:00,
2013-07-08 09:47:00,72.7,68.9,30.17,East,83,2.0,3.0,88,0.00,,,0.00,HR-IXPWINDi_r2_v1.2.,2013-07-08 13:47:00,
2013-07-08 09:52:00,73.0,69.5,30.17,WNW,303,3.0,5.0,89,0.00,,,0.00,HR-IXPWINDi_r2_v1.2.,2013-07-08 13:52:00,
2013-07-08 09:57:00,73.3,69.1,30.17,ENE,62,1.0,5.0,87,0.00,,,0.00,HR-IXPWINDi_r2_v1.2.,2013-07-08 13:57:00,
2013-07-08 10:02:00,73.4,69.2,30.17,SE,144,0.0,3.0,87,0.00,,,0.00,HR-IXPWINDi_r2_v1.2.,2013-07-08 14:02:00,
2013-07-08 10:07:00,73.7,69.9,30.17,SSE,166,1.0,3.0,88,0.00,,,0.00,HR-IXPWINDi_r2_v1.2.,2013-07-08 14:07:00,
2013-07-08 10:13:00,73.9,69.0,30.17,ENE,60,0.0,2.0,85,0.00,,,0.00,HR-IXPWINDi_r2_v1.2.,2013-07-08 14:13:00,
2013-07-08 10:18:00,74.6,70.1,30.17,NE,45,0.0,3.0,86,0.00,,,0.00,HR-IXPWINDi_r2_v1.2.,2013-07-08 14:18:00,
2013-07-08 10:23:00,75.2,69.6,30.17,ENE,67,0.0,3.0,83,0.00,,,0.00,HR-IXPWINDi_r2_v1.2.,2013-07-08 14:23:00,
2013-07-08 10:28:00,75.6,70.0,30.17,ENE,76,2.0,3.0,83,0.00,,,0.00,HR-IXPWINDi_r2_v1.2.,2013-07-08 14:28:00,
2013-07-08 10:34:00,75.7,69.4,30.17,ESE,117,1.0,3.0,81,0.00,,,0.00,HR-IXPWINDi_r2_v1.2.,2013-07-08 14:34:00,
2013-07-08 10:39:00,75.9,69.6,30.17,NE,53,0.0,3.0,81,0.00,,,0.00,HR-IXPWINDi_r2_v1.2.,2013-07-08 14:39:00,
2013-07-08 10:44:00,76.3,69.2,30.17,NNE,22,0.0,3.0,79,0.00,,,0.00,HR-IXPWINDi_r2_v1.2.,2013-07-08 14:44:00,
2013-07-08 10:49:00,76.4,69.0,30.17,NNE,22,0.0,3.0,78,0.00,,,0.00,HR-IXPWINDi_r2_v1.2.,2013-07-08 14:49:00,
2013-07-08 10:54:00,76.7,70.4,30.17,NE,44,0.0,2.0,81,0.00,,,0.00,HR-IXPWINDi_r2_v1.2.,2013-07-08 14:54:00,
2013-07-08 11:00:00,77.0,69.9,30.17,ENE,66,0.0,4.0,79,0.00,,,0.00,HR-IXPWINDi_r2_v1.2.,2013-07-08 15:00:00,
2013-07-08 11:05:00,77.0,69.6,30.17,NE,43,1.0,4.0,78,0.00,,,0.00,HR-IXPWINDi_r2_v1.2.,2013-07-08 15:05:00,
2013-07-08 11:10:00,77.1,69.7,30.17,East,87,2.0,5.0,78,0.00,,,0.00,HR-IXPWINDi_r2_v1.2.,2013-07-08 15:10:00,
2013-07-08 11:15:00,77.3,69.8,30.17,SE,132,1.0,5.0,78,0.00,,,0.00,HR-IXPWINDi_r2_v1.2.,2013-07-08 15:15:00,
2013-07-08 11:20:00,77.6,70.1,30.17,SE,129,0.0,2.0,78,0.00,,,0.00,HR-IXPWINDi_r2_v1.2.,2013-07-08 15:20:00,
2013-07-08 11:26:00,78.0,69.8,30.17,NNW,336,2.0,3.0,76,0.00,,,0.00,HR-IXPWINDi_r2_v1.2.,2013-07-08 15:26:00,
2013-07-08 11:31:00,78.4,70.5,30.17,East,80,1.0,3.0,77,0.00,,,0.00,HR-IXPWINDi_r2_v1.2.,2013-07-08 15:31:00,
2013-07-08 11:36:00,79.1,69.6,30.17,SE,144,1.0,3.0,73,0.00,,,0.00,HR-IXPWINDi_r2_v1.2.,2013-07-08 15:36:00,
2013-07-08 11:42:00,79.6,68.9,30.17,South,180,0.0,3.0,70,0.00,,,0.00,HR-IXPWINDi_r2_v1.2.,2013-07-08 15:42:00,
2013-07-08 11:47:00,79.9,72.0,30.17,WNW,302,0.0,3.0,77,0.00,,,0.00,HR-IXPWINDi_r2_v1.2.,2013-07-08 15:47:00,
2013-07-08 11:52:00,80.1,71.8,30.17,SSE,155,1.0,10.0,76,0.00,,,0.00,HR-IXPWINDi_r2_v1.2.,2013-07-08 15:52:00,
2013-07-08 11:57:00,80.4,70.9,30.17,South,181,2.0,10.0,73,0.00,,,0.00,HR-IXPWINDi_r2_v1.2.,2013-07-08 15:57:00,
2013-07-08 12:03:00,80.8,72.1,30.17,WSW,252,0.0,6.0,75,0.00,,,0.00,HR-IXPWINDi_r2_v1.2.,2013-07-08 16:03:00,
2013-07-08 12:08:00,81.2,70.8,30.17,East,82,0.0,2.0,71,0.00,,,0.00,HR-IXPWINDi_r2_v1.2.,2013-07-08 16:08:00,
2013-07-08 12:13:00,80.5,70.6,30.17,NNE,30,3.0,3.0,72,0.00,,,0.00,HR-IXPWINDi_r2_v1.2.,2013-07-08 16:13:00,
2013-07-08 12:18:00,80.1,69.0,30.17,SE,141,1.0,3.0,69,0.00,,,0.00,HR-IXPWINDi_r2_v1.2.,2013-07-08 16:18:00,
2013-07-08 12:23:00,80.3,70.4,30.17,NE,47,2.0,3.0,72,0.00,,,0.00,HR-IXPWINDi_r2_v1.2.,2013-07-08 16:23:00,
2013-07-08 12:29:00,80.2,70.7,30.17,ESE,107,0.0,2.0,73,0.00,,,0.00,HR-IXPWINDi_r2_v1.2.,2013-07-08 16:29:00,
2013-07-08 12:34:00,80.3,69.6,30.17,SE,140,0.0,3.0,70,0.00,,,0.00,HR-IXPWINDi_r2_v1.2.,2013-07-08 16:34:00,
2013-07-08 12:39:00,80.7,70.0,30.17,SE,146,1.0,3.0,70,0.00,,,0.00,HR-IXPWINDi_r2_v1.2.,2013-07-08 16:39:00,
2013-07-08 12:44:00,80.5,70.2,30.17,SE,130,0.0,3.0,71,0.00,,,0.00,HR-IXPWINDi_r2_v1.2.,2013-07-08 16:44:00,
2013-07-08 12:50:00,80.3,71.2,30.16,SSE,157,0.0,4.0,74,0.00,,,0.00,HR-IXPWINDi_r2_v1.2.,2013-07-08 16:50:00,
2013-07-08 12:55:00,80.5,71.4,30.17,SSE,147,0.0,4.0,74,0.00,,,0.00,HR-IXPWINDi_r2_v1.2.,2013-07-08 16:55:00,
2013-07-08 13:00:00,80.7,69.5,30.16,SSE,148,1.0,3.0,69,0.00,,,0.00,HR-IXPWINDi_r2_v1.2.,2013-07-08 17:00:00,
2013-07-08 13:05:00,80.9,68.0,30.16,SSE,155,0.0,3.0,65,0.00,,,0.00,HR-IXPWINDi_r2_v1.2.,2013-07-08 17:05:00,
2013-07-08 13:11:00,80.9,69.3,30.16,SSE,155,0.0,1.0,68,0.00,,,0.00,HR-IXPWINDi_r2_v1.2.,2013-07-08 17:11:00,
2013-07-08 13:16:00,80.8,72.1,30.16,SSE,155,0.0,1.0,75,0.00,,,0.00,HR-IXPWINDi_r2_v1.2.,2013-07-08 17:16:00,
2013-07-08 13:21:00,80.6,69.4,30.16,SSE,155,0.0,1.0,69,0.00,,,0.00,HR-IXPWINDi_r2_v1.2.,2013-07-08 17:21:00,
2013-07-08 13:27:00,80.6,70.3,30.16,SE,138,0.0,3.0,71,0.00,,,0.00,HR-IXPWINDi_r2_v1.2.,2013-07-08 17:27:00,
2013-07-08 13:32:00,80.6,70.3,30.16,East,81,1.0,3.0,71,0.00,,,0.00,HR-IXPWINDi_r2_v1.2.,2013-07-08 17:32:00,
2013-07-08 13:37:00,81.4,70.2,30.15,East,94,0.0,6.0,69,0.00,,,0.00,HR-IXPWINDi_r2_v1.2.,2013-07-08 17:37:00,
2013-07-08 13:42:00,82.2,69.2,30.15,East,93,1.0,6.0,65,0.00,,,0.00,HR-IXPWINDi_r2_v1.2.,2013-07-08 17:42:00,
2013-07-08 13:47:00,82.8,68.4,30.15,NE,34,1.0,5.0,62,0.00,,,0.00,HR-IXPWINDi_r2_v1.2.,2013-07-08 17:47:00,
2013-07-08 13:52:00,81.8,67.9,30.15,NNE,30,0.0,4.0,63,0.00,,,0.00,HR-IXPWINDi_r2_v1.2.,2013-07-08 17:52:00,
2013-07-08 13:58:00,81.8,68.4,30.15,South,180,0.0,4.0,64,0.00,,,0.00,HR-IXPWINDi_r2_v1.2.,2013-07-08 17:58:00,
2013-07-08 14:03:00,82.1,68.2,30.15,SSE,160,0.0,3.0,63,0.00,,,0.00,HR-IXPWINDi_r2_v1.2.,2013-07-08 18:03:00,
2013-07-08 14:08:00,82.3,69.8,30.14,NW,307,0.0,6.0,66,0.00,,,0.00,HR-IXPWINDi_r2_v1.2.,2013-07-08 18:08:00,
2013-07-08 14:13:00,82.7,69.7,30.15,SE,142,1.0,6.0,65,0.00,,,0.00,HR-IXPWINDi_r2_v1.2.,2013-07-08 18:13:00,
2013-07-08 14:18:00,83.3,68.4,30.14,SSE,165,3.0,5.0,61,0.00,,,0.00,HR-IXPWINDi_r2_v1.2.,2013-07-08 18:18:00,
2013-07-08 14:24:00,83.5,69.5,30.14,SE,135,0.0,5.0,63,0.00,,,0.00,HR-IXPWINDi_r2_v1.2.,2013-07-08 18:24:00,
2013-07-08 14:29:00,83.4,69.9,30.14,SE,135,0.0,5.0,64,0.00,,,0.00,HR-IXPWINDi_r2_v1.2.,2013-07-08 18:29:00,
2013-07-08 14:34:00,82.9,71.2,30.14,SE,135,0.0,1.0,68,0.00,,,0.00,HR-IXPWINDi_r2_v1.2.,2013-07-08 18:34:00,
2013-07-08 14:39:00,82.4,72.4,30.13,SE,126,1.0,2.0,72,0.00,,,0.00,HR-IXPWINDi_r2_v1.2.,2013-07-08 18:39:00,
2013-07-08 14:44:00,82.6,70.9,30.13,SE,126,0.0,2.0,68,0.00,,,0.00,HR-IXPWINDi_r2_v1.2.,2013-07-08 18:44:00,
2013-07-08 14:49:00,82.8,70.2,30.13,ESE,109,1.0,3.0,66,0.00,,,0.00,HR-IXPWINDi_r2_v1.2.,2013-07-08 18:49:00,
2013-07-08 14:55:00,83.2,69.2,30.13,South,177,0.0,3.0,63,0.00,,,0.00,HR-IXPWINDi_r2_v1.2.,2013-07-08 18:55:00,
2013-07-08 15:00:00,83.8,70.3,30.13,South,177,0.0,3.0,64,0.00,,,0.00,HR-IXPWINDi_r2_v1.2.,2013-07-08 19:00:00,
2013-07-08 15:05:00,84.0,70.5,30.12,South,189,0.0,2.0,64,0.00,,,0.00,HR-IXPWINDi_r2_v1.2.,2013-07-08 19:05:00,
2013-07-08 15:10:00,83.8,71.6,30.12,South,189,0.0,2.0,67,0.00,,,0.00,HR-IXPWINDi_r2_v1.2.,2013-07-08 19:10:00,
2013-07-08 15:16:00,83.4,71.7,30.13,South,189,0.0,1.0,68,0.00,,,0.00,HR-IXPWINDi_r2_v1.2.,2013-07-08 19:16:00,
2013-07-08 15:21:00,82.8,73.2,30.12,South,189,0.0,1.0,73,0.00,,,0.00,HR-IXPWINDi_r2_v1.2.,2013-07-08 19:21:00,
2013-07-08 15:26:00,82.7,69.7,30.12,ENE,69,2.0,4.0,65,0.00,,,0.00,HR-IXPWINDi_r2_v1.2.,2013-07-08 19:26:00,
2013-07-08 15:31:00,82.8,69.8,30.12,NNE,17,1.0,5.0,65,0.00,,,0.00,HR-IXPWINDi_r2_v1.2.,2013-07-08 19:31:00,
2013-07-08 15:36:00,82.9,69.0,30.12,ENE,57,0.0,5.0,63,0.00,,,0.00,HR-IXPWINDi_r2_v1.2.,2013-07-08 19:36:00,
2013-07-08 15:41:00,83.4,70.8,30.12,SSE,158,1.0,4.0,66,0.00,,,0.00,HR-IXPWINDi_r2_v1.2.,2013-07-08 19:41:00,
2013-07-08 15:47:00,84.1,69.6,30.12,SSE,158,0.0,2.0,62,0.00,,,0.00,HR-IXPWINDi_r2_v1.2.,2013-07-08 19:47:00,
2013-07-08 15:52:00,84.3,69.8,30.12,NNE,19,0.0,2.0,62,0.00,,,0.00,HR-IXPWINDi_r2_v1.2.,2013-07-08 19:52:00,
2013-07-08 15:58:00,84.6,70.6,30.12,NNE,19,0.0,2.0,63,0.00,,,0.00,HR-IXPWINDi_r2_v1.2.,2013-07-08 19:58:00,
2013-07-08 16:03:00,84.8,71.2,30.11,NW,321,0.0,3.0,64,0.00,,,0.00,HR-IXPWINDi_r2_v1.2.,2013-07-08 20:03:00,
2013-07-08 16:08:00,84.5,71.4,30.11,NNE,22,1.0,3.0,65,0.00,,,0.00,HR-IXPWINDi_r2_v1.2.,2013-07-08 20:08:00,
2013-07-08 16:14:00,84.3,71.2,30.11,SE,131,0.0,2.0,65,0.00,,,0.00,HR-IXPWINDi_r2_v1.2.,2013-07-08 20:14:00,
2013-07-08 16:19:00,84.8,69.3,30.10,SSE,153,1.0,5.0,60,0.00,,,0.00,HR-IXPWINDi_r2_v1.2.,2013-07-08 20:19:00,
2013-07-08 16:24:00,85.2,70.2,30.10,SSE,148,0.0,5.0,61,0.00,,,0.00,HR-IXPWINDi_r2_v1.2.,2013-07-08 20:24:00,
2013-07-08 16:30:00,85.4,69.4,30.10,SE,144,1.0,6.0,59,0.00,,,0.00,HR-IXPWINDi_r2_v1.2.,2013-07-08 20:30:00,
2013-07-08 16:35:00,85.6,68.6,30.10,NNE,20,2.0,6.0,57,0.00,,,0.00,HR-IXPWINDi_r2_v1.2.,2013-07-08 20:35:00,
2013-07-08 16:40:00,85.3,67.8,30.10,NE,43,1.0,3.0,56,0.00,,,0.00,HR-IXPWINDi_r2_v1.2.,2013-07-08 20:40:00,
2013-07-08 16:45:00,85.2,72.5,30.10,SSE,151,0.0,5.0,66,0.00,,,0.00,HR-IXPWINDi_r2_v1.2.,2013-07-08 20:45:00,
2013-07-08 16:50:00,85.3,70.8,30.10,SSE,147,0.0,5.0,62,0.00,,,0.00,HR-IXPWINDi_r2_v1.2.,2013-07-08 20:50:00,
2013-07-08 16:55:00,85.2,68.2,30.09,NE,55,1.0,3.0,57,0.00,,,0.00,HR-IXPWINDi_r2_v1.2.,2013-07-08 20:55:00,
2013-07-08 17:00:00,84.3,68.9,30.09,NE,42,0.0,3.0,60,0.00,,,0.00,HR-IXPWINDi_r2_v1.2.,2013-07-08 21:00:00,
2013-07-08 17:06:00,83.8,70.3,30.09,NE,42,0.0,2.0,64,0.00,,,0.00,HR-IXPWINDi_r2_v1.2.,2013-07-08 21:06:00,
2013-07-08 17:11:00,83.9,69.9,30.09,East,82,1.0,5.0,63,0.00,,,0.00,HR-IXPWINDi_r2_v1.2.,2013-07-08 21:11:00,
2013-07-08 17:16:00,84.2,68.8,30.09,ENE,71,1.0,5.0,60,0.00,,,0.00,HR-IXPWINDi_r2_v1.2.,2013-07-08 21:16:00,
2013-07-08 17:21:00,84.1,71.9,30.09,NE,40,0.0,3.0,67,0.00,,,0.00,HR-IXPWINDi_r2_v1.2.,2013-07-08 21:21:00,
2013-07-08 17:26:00,84.0,69.1,30.09,NE,40,0.0,3.0,61,0.00,,,0.00,HR-IXPWINDi_r2_v1.2.,2013-07-08 21:26:00,
2013-07-08 17:32:00,83.7,71.1,30.08,NE,40,0.0,2.0,66,0.00,,,0.00,HR-IXPWINDi_r2_v1.2.,2013-07-08 21:32:00,
2013-07-08 17:37:00,83.6,68.2,30.08,SE,143,0.0,5.0,60,0.00,,,0.00,HR-IXPWINDi_r2_v1.2.,2013-07-08 21:37:00,
2013-07-08 17:42:00,83.6,68.7,30.08,SSE,149,0.0,5.0,61,0.00,,,0.00,HR-IXPWINDi_r2_v1.2.,2013-07-08 21:42:00,
2013-07-08 17:47:00,83.6,70.1,30.08,SSE,149,0.0,3.0,64,0.00,,,0.00,HR-IXPWINDi_r2_v1.2.,2013-07-08 21:47:00,
2013-07-08 17:52:00,83.4,70.8,30.08,SSE,149,0.0,3.0,66,0.00,,,0.00,HR-IXPWINDi_r2_v1.2.,2013-07-08 21:52:00,
2013-07-08 17:57:00,83.1,69.6,30.09,SSE,149,0.0,2.0,64,0.00,,,0.00,HR-IXPWINDi_r2_v1.2.,2013-07-08 21:57:00,
2013-07-08 18:03:00,83.0,70.9,30.08,SSE,149,0.0,1.0,67,0.00,,,0.00,HR-IXPWINDi_r2_v1.2.,2013-07-08 22:03:00,
2013-07-08 18:08:00,82.9,70.8,30.08,SE,140,0.0,1.0,67,0.00,,,0.00,HR-IXPWINDi_r2_v1.2.,2013-07-08 22:08:00,
2013-07-08 18:13:00,82.7,72.3,30.08,SE,140,0.0,1.0,71,0.00,,,0.00,HR-IXPWINDi_r2_v1.2.,2013-07-08 22:13:00,
2013-07-08 18:19:00,82.5,73.3,30.08,SE,140,0.0,0.0,74,0.00,,,0.00,HR-IXPWINDi_r2_v1.2.,2013-07-08 22:19:00,
2013-07-08 18:24:00,82.4,70.7,30.09,SE,140,0.0,0.0,68,0.00,,,0.00,HR-IXPWINDi_r2_v1.2.,2013-07-08 22:24:00,
2013-07-08 18:29:00,82.3,74.3,30.09,SE,140,0.0,0.0,77,0.00,,,0.00,HR-IXPWINDi_r2_v1.2.,2013-07-08 22:29:00,
2013-07-08 18:34:00,82.2,73.8,30.08,SE,140,0.0,0.0,76,0.00,,,0.00,HR-IXPWINDi_r2_v1.2.,2013-07-08 22:34:00,
2013-07-08 18:39:00,81.9,74.3,30.09,SE,140,0.0,0.0,78,0.00,,,0.00,HR-IXPWINDi_r2_v1.2.,2013-07-08 22:39:00,
2013-07-08 18:44:00,81.5,73.5,30.09,SE,140,0.0,0.0,77,0.00,,,0.00,HR-IXPWINDi_r2_v1.2.,2013-07-08 22:44:00,
2013-07-08 18:49:00,81.3,70.1,30.09,SE,140,0.0,0.0,69,0.00,,,0.00,HR-IXPWINDi_r2_v1.2.,2013-07-08 22:49:00,
2013-07-08 18:55:00,81.4,73.4,30.09,SE,140,0.0,0.0,77,0.00,,,0.00,HR-IXPWINDi_r2_v1.2.,2013-07-08 22:55:00,
2013-07-08 19:00:00,81.4,73.8,30.09,SE,140,0.0,0.0,78,0.00,,,0.00,HR-IXPWINDi_r2_v1.2.,2013-07-08 23:00:00,
2013-07-08 19:05:00,81.3,74.1,30.09,SE,140,0.0,0.0,79,0.00,,,0.00,HR-IXPWINDi_r2_v1.2.,2013-07-08 23:05:00,
2013-07-08 19:10:00,81.2,74.0,30.09,SE,140,0.0,0.0,79,0.00,,,0.00,HR-IXPWINDi_r2_v1.2.,2013-07-08 23:10:00,
2013-07-08 19:15:00,81.0,74.2,30.09,SE,140,0.0,0.0,80,0.00,,,0.00,HR-IXPWINDi_r2_v1.2.,2013-07-08 23:15:00,
2013-07-08 19:20:00,80.7,73.9,30.09,SE,140,0.0,0.0,80,0.00,,,0.00,HR-IXPWINDi_r2_v1.2.,2013-07-08 23:20:00,
2013-07-08 19:25:00,80.5,74.4,30.09,SE,140,0.0,0.0,82,0.00,,,0.00,HR-IXPWINDi_r2_v1.2.,2013-07-08 23:25:00,
2013-07-08 19:30:00,80.3,74.3,30.09,SE,140,0.0,0.0,82,0.00,,,0.00,HR-IXPWINDi_r2_v1.2.,2013-07-08 23:30:00,
2013-07-08 19:35:00,80.1,74.4,30.09,SE,140,0.0,0.0,83,0.00,,,0.00,HR-IXPWINDi_r2_v1.2.,2013-07-08 23:35:00,
2013-07-08 19:41:00,79.8,74.1,30.09,SE,140,0.0,0.0,83,0.00,,,0.00,HR-IXPWINDi_r2_v1.2.,2013-07-08 23:41:00,
2013-07-08 19:46:00,79.5,73.5,30.09,SE,140,0.0,0.0,82,0.00,,,0.00,HR-IXPWINDi_r2_v1.2.,2013-07-08 23:46:00,
2013-07-08 19:51:00,79.0,71.9,30.09,SE,140,0.0,0.0,79,0.00,,,0.00,HR-IXPWINDi_r2_v1.2.,2013-07-08 23:51:00,
2013-07-08 19:56:00,78.7,72.3,30.10,SE,140,0.0,0.0,81,0.00,,,0.00,HR-IXPWINDi_r2_v1.2.,2013-07-08 23:56:00,
2013-07-08 20:01:00,78.3,71.9,30.10,SE,140,0.0,0.0,81,0.00,,,0.00,HR-IXPWINDi_r2_v1.2.,2013-07-09 00:01:00,
2013-07-08 20:06:00,77.9,72.3,30.10,SE,140,0.0,0.0,83,0.00,,,0.00,HR-IXPWINDi_r2_v1.2.,2013-07-09 00:06:00,
2013-07-08 20:11:00,77.5,72.2,30.10,SE,140,0.0,0.0,84,0.00,,,0.00,HR-IXPWINDi_r2_v1.2.,2013-07-09 00:11:00,
2013-07-08 20:16:00,77.0,71.7,30.10,SE,140,0.0,0.0,84,0.00,,,0.00,HR-IXPWINDi_r2_v1.2.,2013-07-09 00:16:00,
2013-07-08 20:21:00,76.6,71.3,30.10,SE,140,0.0,0.0,84,0.00,,,0.00,HR-IXPWINDi_r2_v1.2.,2013-07-09 00:21:00,
2013-07-08 20:26:00,76.1,70.9,30.10,SE,140,0.0,0.0,84,0.00,,,0.00,HR-IXPWINDi_r2_v1.2.,2013-07-09 00:26:00,
2013-07-08 20:31:00,75.7,70.8,30.10,SE,140,0.0,0.0,85,0.00,,,0.00,HR-IXPWINDi_r2_v1.2.,2013-07-09 00:31:00,
2013-07-08 20:37:00,75.3,70.8,30.10,SE,140,0.0,0.0,86,0.00,,,0.00,HR-IXPWINDi_r2_v1.2.,2013-07-09 00:37:00,
2013-07-08 20:42:00,74.9,70.4,30.11,SE,140,0.0,0.0,86,0.00,,,0.00,HR-IXPWINDi_r2_v1.2.,2013-07-09 00:42:00,
2013-07-08 20:47:00,74.6,70.1,30.11,SE,140,0.0,0.0,86,0.00,,,0.00,HR-IXPWINDi_r2_v1.2.,2013-07-09 00:47:00,
2013-07-08 20:52:00,74.3,70.1,30.11,SE,140,0.0,0.0,87,0.00,,,0.00,HR-IXPWINDi_r2_v1.2.,2013-07-09 00:52:00,
2013-07-08 20:58:00,74.0,70.5,30.11,SE,140,0.0,0.0,89,0.00,,,0.00,HR-IXPWINDi_r2_v1.2.,2013-07-09 00:58:00,
2013-07-08 21:03:00,73.7,69.9,30.11,SE,140,0.0,0.0,88,0.00,,,0.00,HR-IXPWINDi_r2_v1.2.,2013-07-09 01:03:00,
2013-07-08 21:08:00,73.4,69.6,30.12,SE,140,0.0,0.0,88,0.00,,,0.00,HR-IXPWINDi_r2_v1.2.,2013-07-09 01:08:00,
2013-07-08 21:13:00,73.2,69.7,30.12,SE,140,0.0,0.0,89,0.00,,,0.00,HR-IXPWINDi_r2_v1.2.,2013-07-09 01:13:00,
2013-07-08 21:19:00,73.0,69.5,30.12,SE,140,0.0,0.0,89,0.00,,,0.00,HR-IXPWINDi_r2_v1.2.,2013-07-09 01:19:00,
2013-07-08 21:24:00,72.8,69.6,30.12,SE,140,0.0,0.0,90,0.00,,,0.00,HR-IXPWINDi_r2_v1.2.,2013-07-09 01:24:00,
2013-07-08 21:29:00,72.6,69.4,30.12,SE,140,0.0,0.0,90,0.00,,,0.00,HR-IXPWINDi_r2_v1.2.,2013-07-09 01:29:00,
2013-07-08 21:34:00,72.5,69.7,30.13,SE,140,0.0,0.0,91,0.00,,,0.00,HR-IXPWINDi_r2_v1.2.,2013-07-09 01:34:00,
2013-07-08 21:39:00,72.4,69.6,30.13,SE,140,0.0,0.0,91,0.00,,,0.00,HR-IXPWINDi_r2_v1.2.,2013-07-09 01:39:00,
2013-07-08 21:45:00,72.3,69.8,30.13,SE,141,0.0,0.0,92,0.00,,,0.00,HR-IXPWINDi_r2_v1.2.,2013-07-09 01:45:00,
2013-07-08 21:50:00,72.2,69.7,30.13,SE,141,0.0,0.0,92,0.00,,,0.00,HR-IXPWINDi_r2_v1.2.,2013-07-09 01:50:00,
2013-07-08 21:55:00,72.1,69.9,30.14,SE,141,0.0,0.0,93,0.00,,,0.00,HR-IXPWINDi_r2_v1.2.,2013-07-09 01:55:00,
2013-07-08 22:00:00,72.1,69.9,30.13,SE,141,0.0,0.0,93,0.00,,,0.00,HR-IXPWINDi_r2_v1.2.,2013-07-09 02:00:00,
2013-07-08 22:06:00,72.1,69.9,30.14,SE,141,0.0,0.0,93,0.00,,,0.00,HR-IXPWINDi_r2_v1.2.,2013-07-09 02:06:00,
2013-07-08 22:11:00,72.0,69.8,30.14,SE,141,0.0,0.0,93,0.00,,,0.00,HR-IXPWINDi_r2_v1.2.,2013-07-09 02:11:00,
2013-07-08 22:16:00,71.9,69.7,30.14,SE,141,0.0,0.0,93,0.00,,,0.00,HR-IXPWINDi_r2_v1.2.,2013-07-09 02:16:00,
2013-07-08 22:21:00,71.9,69.7,30.14,SE,141,0.0,0.0,93,0.00,,,0.00,HR-IXPWINDi_r2_v1.2.,2013-07-09 02:21:00,
2013-07-08 22:27:00,71.8,69.9,30.14,SE,141,0.0,0.0,94,0.00,,,0.00,HR-IXPWINDi_r2_v1.2.,2013-07-09 02:27:00,
2013-07-08 22:32:00,71.7,69.8,30.14,SE,141,0.0,0.0,94,0.00,,,0.00,HR-IXPWINDi_r2_v1.2.,2013-07-09 02:32:00,
2013-07-08 22:37:00,71.6,69.7,30.14,SE,141,0.0,0.0,94,0.00,,,0.00,HR-IXPWINDi_r2_v1.2.,2013-07-09 02:37:00,
2013-07-08 22:42:00,71.6,69.7,30.14,SE,141,0.0,0.0,94,0.00,,,0.00,HR-IXPWINDi_r2_v1.2.,2013-07-09 02:42:00,
2013-07-08 22:47:00,71.5,69.6,30.14,SE,141,0.0,0.0,94,0.00,,,0.00,HR-IXPWINDi_r2_v1.2.,2013-07-09 02:47:00,
2013-07-08 22:53:00,71.4,69.5,30.13,SE,141,0.0,0.0,94,0.00,,,0.00,HR-IXPWINDi_r2_v1.2.,2013-07-09 02:53:00,
2013-07-08 22:58:00,71.4,69.8,30.13,SE,141,0.0,0.0,95,0.00,,,0.00,HR-IXPWINDi_r2_v1.2.,2013-07-09 02:58:00,
2013-07-08 23:03:00,71.3,69.7,30.13,SE,141,0.0,0.0,95,0.00,,,0.00,HR-IXPWINDi_r2_v1.2.,2013-07-09 03:03:00,
2013-07-08 23:09:00,71.3,69.7,30.13,SE,141,0.0,0.0,95,0.00,,,0.00,HR-IXPWINDi_r2_v1.2.,2013-07-09 03:09:00,
2013-07-08 23:14:00,71.2,69.6,30.13,SE,141,0.0,0.0,95,0.00,,,0.00,HR-IXPWINDi_r2_v1.2.,2013-07-09 03:14:00,
2013-07-08 23:19:00,71.0,69.4,30.13,SE,141,0.0,0.0,95,0.00,,,0.00,HR-IXPWINDi_r2_v1.2.,2013-07-09 03:19:00,
2013-07-08 23:24:00,70.9,69.3,30.13,SE,141,0.0,0.0,95,0.00,,,0.00,HR-IXPWINDi_r2_v1.2.,2013-07-09 03:24:00,
2013-07-08 23:29:00,70.8,69.2,30.13,SE,141,0.0,0.0,95,0.00,,,0.00,HR-IXPWINDi_r2_v1.2.,2013-07-09 03:29:00,
2013-07-08 23:34:00,70.7,69.1,30.13,SE,141,0.0,0.0,95,0.00,,,0.00,HR-IXPWINDi_r2_v1.2.,2013-07-09 03:34:00,
2013-07-08 23:39:00,70.5,68.9,30.13,SE,141,0.0,0.0,95,0.00,,,0.00,HR-IXPWINDi_r2_v1.2.,2013-07-09 03:39:00,
2013-07-08 23:44:00,70.4,69.1,30.13,SE,141,0.0,0.0,96,0.00,,,0.00,HR-IXPWINDi_r2_v1.2.,2013-07-09 03:44:00,
2013-07-08 23:49:00,70.4,69.1,30.13,SE,141,0.0,0.0,96,0.00,,,0.00,HR-IXPWINDi_r2_v1.2.,2013-07-09 03:49:00,
2013-07-08 23:54:00,70.3,69.0,30.14,SE,141,0.0,1.0,96,0.00,,,0.00,HR-IXPWINDi_r2_v1.2.,2013-07-09 03:54:00,
2013-07-08 23:59:00,70.2,68.9,30.14,SE,141,0.0,1.0,96,0.00,,,0.00,HR-IXPWINDi_r2_v1.2.,2013-07-09 03:59:00,